createdAt,value
2018-01-30T00:00:12.485Z,91.70
2018-01-30T00:01:15.020Z,91.70
2018-01-30T00:02:17.537Z,92.10
2018-01-30T00:03:20.049Z,92.00
2018-01-30T00:04:22.565Z,92.10
2018-01-30T00:05:25.073Z,92.30
2018-01-30T00:06:27.621Z,92.70
2018-01-30T00:07:30.955Z,93.30
2018-01-30T00:08:33.477Z,93.20
2018-01-30T00:09:36.753Z,93.80
2018-01-30T00:10:40.046Z,94.10
2018-01-30T00:11:43.324Z,93.60
2018-01-30T00:12:46.654Z,94.00
2018-01-30T00:13:49.165Z,94.00
2018-01-30T00:14:51.690Z,93.80
2018-01-30T00:15:54.209Z,93.20
2018-01-30T00:16:57.546Z,93.30
2018-01-30T00:18:00.110Z,93.30
2018-01-30T00:19:02.621Z,92.70
2018-01-30T00:20:05.901Z,92.70
2018-01-30T00:21:09.189Z,92.60
2018-01-30T00:22:12.477Z,92.60
2018-01-30T00:23:15.790Z,92.90
2018-01-30T00:24:18.306Z,92.90
2018-01-30T00:25:20.834Z,93.00
2018-01-30T00:26:23.348Z,92.80
2018-01-30T00:27:25.886Z,93.10
2018-01-30T00:28:28.429Z,93.20
2018-01-30T00:29:30.936Z,93.20
2018-01-30T00:30:33.446Z,93.40
2018-01-30T00:31:35.994Z,93.60
2018-01-30T00:32:39.289Z,92.90
2018-01-30T00:33:41.814Z,92.90
2018-01-30T00:34:44.327Z,93.10
2018-01-30T00:35:46.877Z,93.10
2018-01-30T00:36:49.395Z,93.10
2018-01-30T00:37:51.905Z,93.30
2018-01-30T00:38:55.182Z,93.50
2018-01-30T00:39:58.466Z,93.20
2018-01-30T00:41:01.790Z,93.50
2018-01-30T00:42:04.308Z,93.60
2018-01-30T00:43:06.816Z,93.90
2018-01-30T00:44:09.369Z,94.10
2018-01-30T00:45:11.882Z,94.20
2018-01-30T00:46:14.403Z,93.90
2018-01-30T00:47:16.908Z,93.90
2018-01-30T00:48:19.445Z,94.40
2018-01-30T00:49:21.962Z,94.40
2018-01-30T00:50:24.477Z,94.60
2018-01-30T00:51:26.990Z,94.90
2018-01-30T00:52:29.561Z,94.90
2018-01-30T00:53:32.073Z,95.10
2018-01-30T00:54:34.590Z,94.90
2018-01-30T00:55:37.109Z,94.70
2018-01-30T00:56:39.621Z,94.40
2018-01-30T00:57:42.169Z,94.20
2018-01-30T00:58:44.682Z,94.10
2018-01-30T00:59:47.195Z,93.90
2018-01-30T01:00:49.723Z,93.70
2018-01-30T01:01:52.250Z,93.40
2018-01-30T01:02:54.794Z,93.30
2018-01-30T01:03:57.345Z,93.30
2018-01-30T01:04:59.910Z,93.30
2018-01-30T01:06:02.420Z,93.20
2018-01-30T01:07:04.934Z,93.40
2018-01-30T01:08:07.484Z,93.60
2018-01-30T01:09:10.017Z,93.10
2018-01-30T01:10:12.533Z,93.10
2018-01-30T01:11:15.046Z,93.00
2018-01-30T01:12:18.330Z,93.10
2018-01-30T01:13:20.897Z,92.90
2018-01-30T01:14:23.400Z,93.50
2018-01-30T01:15:25.943Z,92.80
2018-01-30T01:16:29.221Z,92.60
2018-01-30T01:17:32.493Z,92.50
2018-01-30T01:18:35.037Z,92.40
2018-01-30T01:19:37.544Z,92.30
2018-01-30T01:20:40.821Z,92.80
2018-01-30T01:21:44.154Z,92.80
2018-01-30T01:22:46.685Z,92.80
2018-01-30T01:23:49.221Z,92.40
2018-01-30T01:24:51.738Z,92.50
2018-01-30T01:25:54.251Z,92.50
2018-01-30T01:26:56.802Z,92.00
2018-01-30T01:27:59.317Z,92.20
2018-01-30T01:29:01.893Z,92.20
2018-01-30T01:30:04.426Z,92.50
2018-01-30T01:31:07.703Z,92.50
2018-01-30T01:32:10.257Z,92.30
2018-01-30T01:33:12.775Z,92.90
2018-01-30T01:34:15.293Z,92.50
2018-01-30T01:35:17.810Z,92.10
2018-01-30T01:36:20.317Z,91.60
2018-01-30T01:37:22.857Z,91.50
2018-01-30T01:38:25.368Z,91.50
2018-01-30T01:39:27.916Z,91.60
2018-01-30T01:40:30.425Z,92.00
2018-01-30T01:41:32.942Z,91.90
2018-01-30T01:42:35.454Z,92.20
2018-01-30T01:43:38.007Z,91.90
2018-01-30T01:44:41.317Z,92.10
2018-01-30T01:45:43.841Z,92.10
2018-01-30T01:46:46.361Z,92.30
2018-01-30T01:47:48.870Z,92.30
2018-01-30T01:48:51.379Z,92.30
2018-01-30T01:49:53.918Z,91.80
2018-01-30T01:50:57.264Z,91.90
2018-01-30T01:51:59.784Z,91.90
2018-01-30T01:53:03.102Z,92.00
2018-01-30T01:54:05.622Z,92.00
2018-01-30T01:55:08.898Z,90.90
2018-01-30T01:56:12.236Z,91.40
2018-01-30T01:57:14.740Z,91.40
2018-01-30T01:58:17.252Z,91.80
2018-01-30T01:59:19.766Z,91.50
2018-01-30T02:00:22.273Z,91.30
2018-01-30T02:01:24.905Z,91.40
2018-01-30T02:02:27.412Z,91.50
2018-01-30T02:03:29.930Z,91.60
2018-01-30T02:04:32.439Z,91.80
2018-01-30T02:05:34.981Z,92.00
2018-01-30T02:06:38.253Z,91.20
2018-01-30T02:07:40.769Z,91.10
2018-01-30T02:08:43.281Z,91.20
2018-01-30T02:09:45.825Z,91.20
2018-01-30T02:10:48.335Z,91.40
2018-01-30T02:11:51.623Z,91.80
2018-01-30T02:12:54.911Z,91.80
2018-01-30T02:13:57.480Z,91.80
2018-01-30T02:14:59.996Z,92.00
2018-01-30T02:16:02.508Z,92.00
2018-01-30T02:17:05.031Z,91.40
2018-01-30T02:18:07.597Z,91.20
2018-01-30T02:19:10.109Z,91.70
2018-01-30T02:20:12.633Z,91.90
2018-01-30T02:21:15.157Z,91.60
2018-01-30T02:22:17.670Z,91.30
2018-01-30T02:23:20.221Z,91.20
2018-01-30T02:24:22.765Z,91.60
2018-01-30T02:25:25.305Z,91.20
2018-01-30T02:26:27.820Z,91.40
2018-01-30T02:27:30.335Z,91.60
2018-01-30T02:28:32.856Z,91.30
2018-01-30T02:29:35.406Z,91.60
2018-01-30T02:30:37.935Z,91.70
2018-01-30T02:31:40.480Z,90.60
2018-01-30T02:32:43.805Z,90.60
2018-01-30T02:33:46.322Z,90.60
2018-01-30T02:34:48.829Z,90.40
2018-01-30T02:35:51.344Z,90.50
2018-01-30T02:36:53.868Z,90.20
2018-01-30T02:37:56.409Z,90.00
2018-01-30T02:38:58.920Z,90.40
2018-01-30T02:40:01.437Z,90.70
2018-01-30T02:41:04.794Z,90.60
2018-01-30T02:42:07.345Z,90.60
2018-01-30T02:43:09.860Z,90.50
2018-01-30T02:44:12.375Z,90.00
2018-01-30T02:45:14.889Z,90.30
2018-01-30T02:46:17.433Z,90.30
2018-01-30T02:47:20.734Z,90.90
2018-01-30T02:48:24.012Z,90.30
2018-01-30T02:49:27.302Z,90.30
2018-01-30T02:50:30.614Z,89.70
2018-01-30T02:51:33.167Z,89.70
2018-01-30T02:52:35.684Z,89.40
2018-01-30T02:53:38.193Z,90.00
2018-01-30T02:54:40.721Z,90.20
2018-01-30T02:55:43.276Z,90.40
2018-01-30T02:56:45.791Z,90.10
2018-01-30T02:57:48.306Z,90.30
2018-01-30T02:58:50.850Z,90.00
2018-01-30T02:59:53.361Z,89.70
2018-01-30T03:00:55.905Z,89.80
2018-01-30T03:01:58.462Z,89.60
2018-01-30T03:03:00.993Z,89.30
2018-01-30T03:04:03.557Z,89.60
2018-01-30T03:05:06.068Z,89.80
2018-01-30T03:06:08.587Z,90.00
2018-01-30T03:07:11.101Z,90.00
2018-01-30T03:08:13.618Z,90.10
2018-01-30T03:09:16.169Z,90.40
2018-01-30T03:10:19.461Z,90.40
2018-01-30T03:11:21.972Z,90.40
2018-01-30T03:12:24.484Z,90.50
2018-01-30T03:13:27.764Z,90.40
2018-01-30T03:14:31.094Z,90.50
2018-01-30T03:15:33.613Z,90.60
2018-01-30T03:16:36.897Z,90.80
2018-01-30T03:17:40.177Z,90.50
2018-01-30T03:18:42.685Z,90.50
2018-01-30T03:19:45.238Z,90.60
2018-01-30T03:20:47.785Z,90.60
2018-01-30T03:21:51.070Z,90.90
2018-01-30T03:22:54.353Z,91.20
2018-01-30T03:23:57.669Z,91.30
2018-01-30T03:25:00.454Z,91.30
2018-01-30T03:26:02.965Z,91.30
2018-01-30T03:27:06.324Z,91.10
2018-01-30T03:28:08.853Z,91.10
2018-01-30T03:29:11.378Z,91.30
2018-01-30T03:30:14.650Z,91.50
2018-01-30T03:31:17.201Z,91.30
2018-01-30T03:32:19.754Z,91.30
2018-01-30T03:33:22.272Z,91.70
2018-01-30T03:34:25.553Z,91.50
2018-01-30T03:35:28.861Z,91.90
2018-01-30T03:36:31.409Z,91.90
2018-01-30T03:37:34.721Z,91.80
2018-01-30T03:38:37.228Z,91.80
2018-01-30T03:39:39.752Z,91.80
2018-01-30T03:40:42.269Z,91.90
2018-01-30T03:41:44.789Z,91.90
2018-01-30T03:42:47.337Z,91.70
2018-01-30T03:43:49.853Z,91.70
2018-01-30T03:44:52.362Z,92.00
2018-01-30T03:45:54.876Z,92.00
2018-01-30T03:46:57.410Z,92.00
2018-01-30T03:47:59.974Z,91.90
2018-01-30T03:49:02.586Z,92.00
2018-01-30T03:50:05.098Z,92.10
2018-01-30T03:51:07.621Z,92.20
2018-01-30T03:52:10.124Z,92.30
2018-01-30T03:53:12.670Z,92.70
2018-01-30T03:54:15.981Z,92.90
2018-01-30T03:55:18.490Z,92.90
2018-01-30T03:56:21.000Z,93.00
2018-01-30T03:57:24.273Z,92.90
2018-01-30T03:58:27.577Z,92.80
2018-01-30T03:59:30.146Z,92.80
2018-01-30T04:00:32.693Z,92.80
2018-01-30T04:01:36.003Z,92.80
2018-01-30T04:02:38.513Z,92.80
2018-01-30T04:03:41.025Z,92.40
2018-01-30T04:04:43.588Z,92.90
2018-01-30T04:05:46.144Z,92.60
2018-01-30T04:06:49.421Z,92.60
2018-01-30T04:07:52.693Z,92.60
2018-01-30T04:08:55.209Z,92.60
2018-01-30T04:09:57.729Z,92.70
2018-01-30T04:11:01.041Z,92.50
2018-01-30T04:12:03.549Z,92.60
2018-01-30T04:13:06.065Z,92.70
2018-01-30T04:14:08.578Z,92.70
2018-01-30T04:15:11.100Z,92.70
2018-01-30T04:16:13.638Z,92.80
2018-01-30T04:17:16.152Z,92.70
2018-01-30T04:18:18.664Z,92.90
2018-01-30T04:19:21.180Z,92.70
2018-01-30T04:20:23.720Z,92.60
2018-01-30T04:21:26.333Z,92.70
2018-01-30T04:22:28.843Z,92.80
2018-01-30T04:23:32.136Z,92.40
2018-01-30T04:24:35.417Z,92.30
2018-01-30T04:25:38.738Z,92.20
2018-01-30T04:26:41.297Z,92.20
2018-01-30T04:27:43.809Z,92.10
2018-01-30T04:28:46.324Z,92.20
2018-01-30T04:29:48.841Z,92.30
2018-01-30T04:30:51.349Z,92.30
2018-01-30T04:31:53.884Z,92.30
2018-01-30T04:32:56.393Z,92.30
2018-01-30T04:33:58.901Z,92.40
2018-01-30T04:35:01.423Z,92.30
2018-01-30T04:36:03.935Z,92.60
2018-01-30T04:37:06.499Z,92.40
2018-01-30T04:38:09.008Z,92.40
2018-01-30T04:39:11.524Z,92.50
2018-01-30T04:40:14.037Z,92.40
2018-01-30T04:41:16.548Z,92.30
2018-01-30T04:42:19.088Z,92.10
2018-01-30T04:43:21.654Z,92.10
2018-01-30T04:44:24.171Z,92.10
2018-01-30T04:45:26.696Z,91.90
2018-01-30T04:46:29.203Z,92.00
2018-01-30T04:47:32.480Z,92.00
2018-01-30T04:48:35.030Z,91.90
2018-01-30T04:49:37.585Z,91.90
2018-01-30T04:50:40.094Z,91.90
2018-01-30T04:51:42.632Z,92.10
2018-01-30T04:52:45.146Z,92.40
2018-01-30T04:53:47.699Z,92.20
2018-01-30T04:54:50.973Z,91.90
2018-01-30T04:55:54.250Z,91.90
2018-01-30T04:56:56.756Z,91.80
2018-01-30T04:57:59.269Z,91.60
2018-01-30T04:59:01.824Z,91.80
2018-01-30T05:00:04.343Z,91.80
2018-01-30T05:01:06.849Z,91.90
2018-01-30T05:02:09.380Z,91.90
2018-01-30T05:03:11.949Z,91.90
2018-01-30T05:04:14.493Z,91.80
2018-01-30T05:05:17.804Z,91.70
2018-01-30T05:06:20.313Z,91.70
2018-01-30T05:07:22.877Z,91.80
2018-01-30T05:09:34.546Z,91.90
2018-01-30T05:10:37.061Z,92.10
2018-01-30T05:11:40.339Z,91.80
2018-01-30T05:12:43.648Z,91.80
2018-01-30T05:13:46.164Z,91.80
2018-01-30T05:14:48.682Z,91.90
2018-01-30T05:15:51.198Z,92.00
2018-01-30T05:16:53.744Z,92.20
2018-01-30T05:17:56.263Z,92.10
2018-01-30T05:18:58.793Z,91.70
2018-01-30T05:20:01.305Z,92.20
2018-01-30T05:21:03.840Z,92.00
2018-01-30T05:22:06.397Z,92.40
2018-01-30T05:23:08.920Z,92.10
2018-01-30T05:24:11.427Z,92.50
2018-01-30T05:25:13.988Z,92.50
2018-01-30T05:26:16.501Z,92.80
2018-01-30T05:27:19.057Z,91.90
2018-01-30T05:28:22.353Z,92.80
2018-01-30T05:29:24.897Z,92.90
2018-01-30T05:30:28.201Z,92.40
2018-01-30T05:31:30.719Z,92.40
2018-01-30T05:32:33.264Z,92.20
2018-01-30T05:33:35.784Z,92.40
2018-01-30T05:34:39.079Z,92.60
2018-01-30T05:35:41.600Z,92.60
2018-01-30T05:36:44.101Z,92.30
2018-01-30T05:37:47.420Z,91.60
2018-01-30T05:38:49.936Z,91.60
2018-01-30T05:39:53.223Z,91.80
2018-01-30T05:40:56.495Z,91.90
2018-01-30T05:41:59.065Z,91.90
2018-01-30T05:43:01.583Z,91.90
2018-01-30T05:44:04.097Z,92.70
2018-01-30T05:45:06.617Z,92.10
2018-01-30T05:46:09.136Z,92.30
2018-01-30T05:47:12.452Z,92.40
2018-01-30T05:48:14.996Z,92.40
2018-01-30T05:49:18.280Z,91.90
2018-01-30T05:50:21.569Z,91.90
2018-01-30T05:51:24.097Z,91.90
2018-01-30T05:52:26.604Z,91.60
2018-01-30T05:53:29.163Z,91.00
2018-01-30T05:54:31.680Z,91.00
2018-01-30T05:55:34.196Z,92.00
2018-01-30T05:56:36.704Z,92.30
2018-01-30T05:57:39.216Z,91.90
2018-01-30T05:58:42.528Z,92.10
2018-01-30T05:59:45.045Z,92.10
2018-01-30T06:00:47.597Z,92.10
2018-01-30T06:01:50.115Z,92.30
2018-01-30T06:02:52.637Z,91.40
2018-01-30T06:03:55.159Z,91.30
2018-01-30T06:04:57.682Z,92.20
2018-01-30T06:06:00.244Z,92.10
2018-01-30T06:07:02.753Z,92.60
2018-01-30T06:08:05.268Z,92.90
2018-01-30T06:09:07.799Z,92.70
2018-01-30T06:10:10.312Z,92.10
2018-01-30T06:11:13.637Z,93.10
2018-01-30T06:12:16.193Z,93.00
2018-01-30T06:13:18.718Z,92.70
2018-01-30T06:14:21.237Z,92.60
2018-01-30T06:15:23.758Z,92.60
2018-01-30T06:16:26.300Z,92.50
2018-01-30T06:17:28.819Z,92.80
2018-01-30T06:18:31.324Z,92.60
2018-01-30T06:19:33.875Z,92.60
2018-01-30T06:20:36.392Z,93.00
2018-01-30T06:21:38.928Z,92.70
2018-01-30T06:22:41.472Z,92.50
2018-01-30T06:23:43.993Z,93.50
2018-01-30T06:24:47.341Z,92.30
2018-01-30T06:25:49.867Z,92.30
2018-01-30T06:26:52.380Z,92.50
2018-01-30T06:27:54.892Z,93.00
2018-01-30T06:28:58.180Z,93.00
2018-01-30T06:30:00.740Z,93.00
2018-01-30T06:31:03.259Z,92.70
2018-01-30T06:32:05.764Z,92.70
2018-01-30T06:33:09.048Z,92.70
2018-01-30T06:34:12.344Z,92.50
2018-01-30T06:35:14.985Z,92.50
2018-01-30T06:36:17.507Z,92.50
2018-01-30T06:37:20.033Z,92.70
2018-01-30T06:38:23.324Z,92.40
2018-01-30T06:39:26.609Z,92.60
2018-01-30T06:40:29.924Z,92.60
2018-01-30T06:41:32.460Z,92.60
2018-01-30T06:42:34.992Z,92.30
2018-01-30T06:43:37.501Z,92.30
2018-01-30T06:44:40.032Z,92.30
2018-01-30T06:45:42.588Z,93.00
2018-01-30T06:46:45.103Z,93.20
2018-01-30T06:47:47.627Z,93.10
2018-01-30T06:48:50.165Z,92.70
2018-01-30T06:49:52.692Z,93.20
2018-01-30T06:50:55.240Z,93.10
2018-01-30T06:51:58.609Z,93.10
2018-01-30T06:53:01.093Z,93.10
2018-01-30T06:54:04.387Z,93.50
2018-01-30T06:55:07.671Z,93.10
2018-01-30T06:56:10.997Z,92.60
2018-01-30T06:57:13.524Z,92.60
2018-01-30T06:58:16.040Z,92.50
2018-01-30T06:59:18.601Z,92.80
2018-01-30T07:00:21.120Z,92.50
2018-01-30T07:01:23.635Z,92.50
2018-01-30T07:02:26.153Z,92.90
2018-01-30T07:03:28.697Z,92.90
2018-01-30T07:04:31.989Z,93.00
2018-01-30T07:05:35.305Z,92.70
2018-01-30T07:06:37.820Z,92.70
2018-01-30T07:07:40.471Z,92.80
2018-01-30T07:08:42.977Z,93.20
2018-01-30T07:09:46.316Z,93.00
2018-01-30T07:10:48.834Z,93.00
2018-01-30T07:11:52.123Z,93.30
2018-01-30T07:12:54.642Z,93.20
2018-01-30T07:13:57.157Z,93.40
2018-01-30T07:14:59.717Z,93.60
2018-01-30T07:16:03.000Z,93.50
2018-01-30T07:17:05.555Z,93.50
2018-01-30T07:18:08.853Z,93.30
2018-01-30T07:19:11.388Z,93.30
2018-01-30T07:20:13.940Z,93.20
2018-01-30T07:21:16.453Z,93.60
2018-01-30T07:22:18.984Z,93.40
2018-01-30T07:23:21.508Z,93.60
2018-01-30T07:24:24.065Z,93.30
2018-01-30T07:25:26.581Z,93.10
2018-01-30T07:26:29.094Z,93.00
2018-01-30T07:27:31.624Z,92.40
2018-01-30T07:28:34.140Z,92.60
2018-01-30T07:29:36.684Z,92.90
2018-01-30T07:30:39.193Z,93.40
2018-01-30T07:31:41.751Z,93.20
2018-01-30T07:32:44.273Z,92.90
2018-01-30T07:33:47.549Z,93.50
2018-01-30T07:34:50.141Z,93.50
2018-01-30T07:35:52.664Z,92.70
2018-01-30T07:36:55.991Z,93.40
2018-01-30T07:37:58.509Z,93.20
2018-01-30T07:39:01.026Z,93.10
2018-01-30T07:40:03.593Z,92.80
2018-01-30T07:41:06.124Z,93.30
2018-01-30T07:42:08.649Z,92.90
2018-01-30T07:43:11.168Z,92.80
2018-01-30T07:44:13.692Z,92.90
2018-01-30T07:45:16.252Z,93.30
2018-01-30T07:46:18.762Z,93.20
2018-01-30T07:47:22.046Z,93.80
2018-01-30T07:48:25.331Z,93.30
2018-01-30T07:49:28.606Z,93.40
2018-01-30T07:50:31.929Z,93.60
2018-01-30T07:51:34.444Z,93.60
2018-01-30T07:52:36.952Z,93.50
2018-01-30T07:53:39.516Z,93.50
2018-01-30T07:54:42.025Z,93.30
2018-01-30T07:55:44.552Z,93.20
2018-01-30T07:56:47.112Z,93.40
2018-01-30T07:57:49.624Z,93.30
2018-01-30T07:58:52.198Z,93.60
2018-01-30T07:59:54.724Z,94.00
2018-01-30T08:00:57.237Z,93.50
2018-01-30T08:01:59.761Z,93.40
2018-01-30T08:03:02.272Z,93.50
2018-01-30T08:04:05.589Z,93.40
2018-01-30T08:05:08.121Z,93.40
2018-01-30T08:06:10.676Z,93.70
2018-01-30T08:07:13.198Z,93.90
2018-01-30T08:08:15.707Z,93.60
2018-01-30T08:09:18.225Z,93.60
2018-01-30T08:10:20.750Z,93.90
2018-01-30T08:11:23.329Z,94.00
2018-01-30T08:12:26.613Z,93.50
2018-01-30T08:13:29.989Z,93.50
2018-01-30T08:14:32.499Z,93.50
2018-01-30T08:15:35.020Z,93.70
2018-01-30T08:16:37.569Z,93.30
2018-01-30T08:17:40.115Z,93.40
2018-01-30T08:18:42.624Z,93.40
2018-01-30T08:19:45.911Z,93.40
2018-01-30T08:20:49.194Z,93.50
2018-01-30T08:21:52.518Z,93.50
2018-01-30T08:22:55.037Z,93.50
2018-01-30T08:23:57.737Z,93.70
2018-01-30T08:25:00.251Z,94.00
2018-01-30T08:26:02.764Z,93.60
2018-01-30T08:27:05.314Z,93.70
2018-01-30T08:28:08.653Z,93.60
2018-01-30T08:29:11.169Z,93.60
2018-01-30T08:30:14.453Z,93.60
2018-01-30T08:31:17.729Z,93.30
2018-01-30T08:32:21.011Z,93.40
2018-01-30T08:33:24.336Z,93.30
2018-01-30T08:34:26.860Z,93.30
2018-01-30T08:35:30.161Z,93.30
2018-01-30T08:36:32.681Z,93.30
2018-01-30T08:37:35.184Z,93.20
2018-01-30T08:38:38.518Z,93.30
2018-01-30T08:39:41.049Z,93.30
2018-01-30T08:40:43.568Z,93.20
2018-01-30T08:41:46.089Z,93.20
2018-01-30T08:42:48.618Z,93.40
2018-01-30T08:43:51.949Z,93.20
2018-01-30T08:44:54.476Z,93.20
2018-01-30T08:45:57.760Z,93.20
2018-01-30T08:47:01.052Z,93.10
2018-01-30T08:48:04.335Z,93.00
2018-01-30T08:49:07.660Z,92.70
2018-01-30T08:50:10.181Z,92.70
2018-01-30T08:51:13.468Z,92.80
2018-01-30T08:52:16.756Z,92.70
2018-01-30T08:53:20.037Z,92.50
2018-01-30T08:54:23.353Z,92.60
2018-01-30T08:55:25.874Z,92.60
2018-01-30T08:56:29.160Z,92.40
2018-01-30T08:57:32.446Z,92.50
2018-01-30T08:58:35.735Z,92.70
2018-01-30T08:59:39.062Z,92.30
2018-01-30T09:00:41.580Z,92.30
2018-01-30T09:01:44.858Z,92.20
2018-01-30T09:02:48.135Z,92.10
2018-01-30T09:03:50.689Z,92.10
2018-01-30T09:04:53.236Z,92.00
2018-01-30T09:05:55.772Z,92.30
2018-01-30T09:06:58.326Z,92.40
2018-01-30T09:08:00.852Z,92.30
2018-01-30T09:09:03.360Z,92.20
2018-01-30T09:10:05.879Z,92.40
2018-01-30T09:11:08.398Z,92.00
2018-01-30T09:12:10.941Z,92.10
2018-01-30T09:13:14.241Z,92.20
2018-01-30T09:14:16.749Z,92.20
2018-01-30T09:15:19.271Z,92.50
2018-01-30T09:16:21.792Z,92.20
2018-01-30T09:17:24.488Z,92.00
2018-01-30T09:18:27.765Z,92.10
2018-01-30T09:19:30.290Z,92.10
2018-01-30T09:20:32.807Z,92.40
2018-01-30T09:21:36.084Z,92.20
2018-01-30T09:22:38.634Z,92.20
2018-01-30T09:23:41.182Z,92.10
2018-01-30T09:24:43.705Z,92.20
2018-01-30T09:25:46.226Z,92.30
2018-01-30T09:26:48.765Z,91.90
2018-01-30T09:27:51.321Z,91.80
2018-01-30T09:28:53.834Z,91.60
2018-01-30T09:29:56.388Z,91.70
2018-01-30T09:30:58.901Z,91.90
2018-01-30T09:32:01.422Z,92.10
2018-01-30T09:33:03.941Z,91.90
2018-01-30T09:34:06.457Z,91.90
2018-01-30T09:35:08.996Z,91.90
2018-01-30T09:36:11.505Z,91.40
2018-01-30T09:37:14.836Z,90.90
2018-01-30T09:38:17.369Z,90.90
2018-01-30T09:39:20.656Z,91.00
2018-01-30T09:40:23.933Z,91.30
2018-01-30T09:41:27.213Z,91.20
2018-01-30T09:42:30.524Z,91.10
2018-01-30T09:43:33.045Z,91.10
2018-01-30T09:44:35.555Z,91.40
2018-01-30T09:45:38.073Z,91.60
2018-01-30T09:46:40.586Z,91.40
2018-01-30T09:47:43.138Z,91.00
2018-01-30T09:48:46.416Z,91.20
2018-01-30T09:49:49.709Z,90.70
2018-01-30T09:50:52.226Z,90.70
2018-01-30T09:51:54.737Z,90.60
2018-01-30T09:52:58.042Z,91.00
2018-01-30T09:54:00.548Z,91.00
2018-01-30T09:55:03.093Z,91.10
2018-01-30T09:56:05.609Z,91.00
2018-01-30T09:57:08.890Z,90.30
2018-01-30T09:58:12.204Z,90.50
2018-01-30T09:59:14.715Z,90.50
2018-01-30T10:00:17.296Z,90.20
2018-01-30T10:01:19.812Z,90.40
2018-01-30T10:02:22.328Z,90.50
2018-01-30T10:03:24.836Z,90.00
2018-01-30T10:04:27.358Z,90.40
2018-01-30T10:05:29.917Z,90.50
2018-01-30T10:06:32.424Z,90.60
2018-01-30T10:07:34.949Z,90.50
2018-01-30T10:08:37.463Z,90.20
2018-01-30T10:09:39.984Z,90.20
2018-01-30T10:10:42.534Z,89.00
2018-01-30T10:11:45.053Z,89.30
2018-01-30T10:13:56.613Z,88.20
2018-01-30T10:14:59.902Z,88.80
2018-01-30T10:16:03.184Z,88.70
2018-01-30T10:17:06.492Z,89.20
2018-01-30T10:18:09.006Z,89.20
2018-01-30T10:19:11.525Z,89.70
2018-01-30T10:20:14.040Z,89.70
2018-01-30T10:21:16.560Z,88.60
2018-01-30T10:22:19.120Z,88.50
2018-01-30T10:23:21.674Z,88.00
2018-01-30T10:24:24.192Z,87.00
2018-01-30T10:25:26.717Z,84.90
2018-01-30T10:26:29.241Z,83.90
2018-01-30T10:27:31.795Z,80.50
2018-01-30T10:28:34.314Z,78.80
2018-01-30T10:29:36.861Z,78.10
2018-01-30T10:30:40.144Z,78.30
2018-01-30T10:31:43.423Z,80.30
2018-01-30T10:32:46.709Z,82.00
2018-01-30T10:33:50.036Z,82.10
2018-01-30T10:34:52.556Z,82.10
2018-01-30T10:35:55.840Z,83.20
2018-01-30T10:36:59.122Z,83.60
2018-01-30T10:38:02.437Z,83.20
2018-01-30T10:39:04.985Z,83.10
2018-01-30T10:40:08.274Z,80.80
2018-01-30T10:41:10.789Z,80.70
2018-01-30T10:42:13.337Z,80.60
2018-01-30T10:43:15.849Z,81.50
2018-01-30T10:44:18.366Z,81.20
2018-01-30T10:45:21.026Z,80.10
2018-01-30T10:46:23.542Z,81.00
2018-01-30T10:47:26.058Z,79.20
2018-01-30T10:48:28.564Z,78.90
2018-01-30T10:49:31.086Z,79.40
2018-01-30T10:50:33.641Z,79.70
2018-01-30T10:51:36.158Z,78.30
2018-01-30T10:52:38.678Z,76.30
2018-01-30T10:53:41.237Z,72.60
2018-01-30T10:54:43.816Z,70.90
2018-01-30T10:55:46.344Z,69.30
2018-01-30T10:56:49.684Z,68.00
2018-01-30T10:57:52.199Z,68.00
2018-01-30T10:58:55.495Z,66.60
2018-01-30T10:59:58.791Z,65.50
2018-01-30T11:01:01.313Z,65.50
2018-01-30T11:02:03.862Z,66.50
2018-01-30T11:03:06.372Z,68.70
2018-01-30T11:04:09.665Z,72.50
2018-01-30T11:05:12.196Z,72.40
2018-01-30T11:06:14.713Z,73.50
2018-01-30T11:07:17.264Z,72.30
2018-01-30T11:08:19.781Z,71.20
2018-01-30T11:09:22.288Z,71.40
2018-01-30T11:10:25.565Z,72.60
2018-01-30T11:11:29.021Z,71.40
2018-01-30T11:12:31.585Z,71.30
2018-01-30T11:13:34.110Z,72.20
2018-01-30T11:14:36.636Z,70.90
2018-01-30T11:15:39.152Z,69.70
2018-01-30T11:16:41.669Z,70.00
2018-01-30T11:17:45.020Z,69.20
2018-01-30T11:18:47.535Z,69.20
2018-01-30T11:19:50.814Z,70.00
2018-01-30T11:20:54.102Z,69.90
2018-01-30T11:21:57.417Z,68.20
2018-01-30T11:22:59.989Z,68.20
2018-01-30T11:24:02.505Z,67.40
2018-01-30T11:25:05.016Z,66.00
2018-01-30T11:26:07.533Z,66.80
2018-01-30T11:27:10.054Z,67.90
2018-01-30T11:28:12.624Z,65.30
2018-01-30T11:29:15.139Z,64.20
2018-01-30T11:30:18.434Z,65.60
2018-01-30T11:31:21.734Z,66.80
2018-01-30T11:32:24.305Z,66.70
2018-01-30T11:33:26.866Z,66.10
2018-01-30T11:34:29.389Z,67.40
2018-01-30T11:35:31.966Z,67.50
2018-01-30T11:36:34.574Z,68.20
2018-01-30T11:37:37.106Z,67.10
2018-01-30T11:38:40.451Z,70.20
2018-01-30T11:39:42.980Z,70.20
2018-01-30T11:40:45.497Z,69.40
2018-01-30T11:41:48.027Z,69.70
2018-01-30T11:42:50.536Z,67.80
2018-01-30T11:43:53.082Z,69.70
2018-01-30T11:44:55.641Z,69.20
2018-01-30T11:45:58.217Z,68.70
2018-01-30T11:47:00.736Z,69.90
2018-01-30T11:48:04.036Z,68.40
2018-01-30T11:49:06.553Z,68.40
2018-01-30T11:50:09.145Z,69.20
2018-01-30T11:51:12.428Z,71.10
2018-01-30T11:52:15.712Z,70.50
2018-01-30T11:53:19.001Z,71.10
2018-01-30T11:54:21.528Z,71.10
2018-01-30T11:55:24.078Z,71.70
2018-01-30T11:56:26.597Z,71.60
2018-01-30T11:57:29.882Z,71.90
2018-01-30T11:58:33.162Z,73.20
2018-01-30T11:59:36.427Z,71.90
2018-01-30T12:00:38.989Z,71.90
2018-01-30T12:01:41.505Z,71.20
2018-01-30T12:02:44.034Z,71.50
2018-01-30T12:03:47.324Z,71.30
2018-01-30T12:04:50.621Z,71.30
2018-01-30T12:05:53.167Z,71.20
2018-01-30T12:06:56.438Z,72.00
2018-01-30T12:07:59.034Z,71.60
2018-01-30T12:09:01.557Z,71.10
2018-01-30T12:10:04.105Z,71.60
2018-01-30T12:11:06.616Z,71.50
2018-01-30T12:12:09.897Z,72.30
2018-01-30T12:13:13.228Z,70.20
2018-01-30T12:14:15.741Z,70.20
2018-01-30T12:15:18.260Z,69.10
2018-01-30T12:16:20.801Z,68.20
2018-01-30T12:17:23.324Z,67.80
2018-01-30T12:18:25.882Z,67.30
2018-01-30T12:19:28.436Z,67.80
2018-01-30T12:20:30.992Z,67.00
2018-01-30T12:21:33.513Z,67.60
2018-01-30T12:22:36.793Z,66.20
2018-01-30T12:23:39.317Z,66.00
2018-01-30T12:24:41.882Z,65.50
2018-01-30T12:25:44.396Z,67.00
2018-01-30T12:26:47.685Z,65.20
2018-01-30T12:27:51.000Z,66.10
2018-01-30T12:28:53.514Z,66.00
2018-01-30T12:29:56.073Z,67.00
2018-01-30T12:30:58.603Z,66.40
2018-01-30T12:32:01.194Z,65.50
2018-01-30T12:33:03.712Z,65.00
2018-01-30T12:34:06.242Z,64.20
2018-01-30T12:35:08.754Z,62.20
2018-01-30T12:36:11.273Z,62.70
2018-01-30T12:37:13.831Z,62.50
2018-01-30T12:38:16.350Z,62.40
2018-01-30T12:39:18.896Z,61.60
2018-01-30T12:40:22.182Z,62.50
2018-01-30T12:41:25.461Z,63.10
2018-01-30T12:42:28.780Z,64.40
2018-01-30T12:44:40.955Z,67.10
2018-01-30T12:45:43.478Z,67.10
2018-01-30T12:46:46.014Z,68.10
2018-01-30T12:47:48.529Z,67.60
2018-01-30T12:48:51.097Z,68.80
2018-01-30T12:49:53.613Z,69.90
2018-01-30T12:50:56.126Z,71.80
2018-01-30T12:51:58.637Z,71.80
2018-01-30T12:53:01.153Z,72.00
2018-01-30T12:54:03.694Z,70.90
2018-01-30T12:55:06.244Z,71.50
2018-01-30T12:56:08.757Z,70.50
2018-01-30T12:57:11.308Z,71.40
2018-01-30T12:58:13.825Z,72.90
2018-01-30T12:59:16.342Z,72.80
2018-01-30T13:00:18.864Z,72.60
2018-01-30T13:01:21.411Z,73.40
2018-01-30T13:02:24.689Z,73.50
2018-01-30T13:03:27.966Z,74.40
2018-01-30T13:04:31.281Z,75.10
2018-01-30T13:05:33.793Z,75.10
2018-01-30T13:06:36.312Z,73.10
2018-01-30T13:07:38.869Z,73.40
2018-01-30T13:08:41.382Z,74.20
2018-01-30T13:09:43.892Z,73.50
2018-01-30T13:10:46.418Z,74.60
2018-01-30T13:11:48.927Z,73.70
2018-01-30T13:12:51.473Z,73.20
2018-01-30T13:13:54.819Z,73.80
2018-01-30T13:14:57.328Z,74.50
2018-01-30T13:16:00.615Z,72.80
2018-01-30T13:17:03.184Z,72.80
2018-01-30T13:18:06.456Z,72.00
2018-01-30T13:19:09.733Z,70.80
2018-01-30T13:20:12.254Z,70.80
2018-01-30T13:21:14.761Z,70.50
2018-01-30T13:22:17.316Z,69.90
2018-01-30T13:23:19.866Z,70.40
2018-01-30T13:24:22.378Z,71.00
2018-01-30T13:25:25.656Z,70.30
2018-01-30T13:26:28.938Z,70.70
2018-01-30T13:27:32.253Z,70.40
2018-01-30T13:28:34.782Z,70.30
2018-01-30T13:29:38.065Z,71.10
2018-01-30T13:30:41.411Z,69.40